createdAt,value
2022-12-13T00:01:31.538Z,0.82
2022-12-13T00:04:01.267Z,1.10
2022-12-13T00:06:28.257Z,1.27
2022-12-13T00:08:55.466Z,1.17
2022-12-13T00:11:22.704Z,0.95
2022-12-13T00:13:49.674Z,1.35
2022-12-13T00:16:18.985Z,0.80
2022-12-13T00:18:55.544Z,0.80
2022-12-13T00:21:25.561Z,1.10
2022-12-13T00:23:54.872Z,1.10
2022-12-13T00:26:32.235Z,0.93
2022-12-13T00:29:04.631Z,1.30
2022-12-13T00:34:21.575Z,1.00
2022-12-13T00:36:48.607Z,1.20
2022-12-13T00:39:16.915Z,1.20
2022-12-13T00:41:44.887Z,1.10
2022-12-13T00:44:13.416Z,1.13
2022-12-13T00:46:41.484Z,1.00
2022-12-13T00:49:10.656Z,1.00
2022-12-13T00:51:37.486Z,1.10
2022-12-13T00:54:04.743Z,1.10
2022-12-13T00:56:33.976Z,1.33
2022-12-13T00:59:01.064Z,1.23
2022-12-13T01:01:30.824Z,1.67
2022-12-13T01:04:00.662Z,1.60
2022-12-13T01:06:41.448Z,1.73
2022-12-13T01:09:15.664Z,1.70
2022-12-13T01:11:44.828Z,1.63
2022-12-13T01:14:11.885Z,1.70
2022-12-13T01:16:38.873Z,1.52
2022-12-13T01:19:05.889Z,1.60
2022-12-13T01:21:33.117Z,1.52
2022-12-13T01:24:06.870Z,1.83
2022-12-13T01:26:34.527Z,1.45
2022-12-13T01:29:05.247Z,1.80
2022-12-13T01:31:32.487Z,1.42
2022-12-13T01:33:59.147Z,2.20
2022-12-13T01:36:27.890Z,1.90
2022-12-13T01:38:58.370Z,2.17
2022-12-13T01:41:28.435Z,2.08
2022-12-13T01:44:02.989Z,2.08
2022-12-13T01:46:32.343Z,1.95
2022-12-13T01:49:02.387Z,2.00
2022-12-13T01:51:35.697Z,2.03
2022-12-13T01:54:04.686Z,2.17
2022-12-13T01:56:37.646Z,2.00
2022-12-13T01:59:08.036Z,2.03
2022-12-13T02:01:35.166Z,1.92
2022-12-13T02:04:02.110Z,1.90
2022-12-13T02:06:45.321Z,1.80
2022-12-13T02:09:13.115Z,2.17
2022-12-13T02:11:42.460Z,1.67
2022-12-13T02:14:09.865Z,2.15
2022-12-13T02:17:09.809Z,1.83
2022-12-13T02:20:00.634Z,1.40
2022-12-13T02:22:46.191Z,1.88
2022-12-13T02:25:28.602Z,1.67
2022-12-13T02:28:30.797Z,1.73
2022-12-13T02:31:12.636Z,1.80
2022-12-13T02:33:45.092Z,1.50
2022-12-13T02:36:36.192Z,1.50
2022-12-13T02:39:30.603Z,1.88
2022-12-13T02:42:01.955Z,1.65
2022-12-13T02:44:34.725Z,1.48
2022-12-13T02:47:12.602Z,1.65
2022-12-13T02:49:47.007Z,1.55
2022-12-13T02:52:22.585Z,1.90
2022-12-13T02:54:49.597Z,1.90
2022-12-13T02:57:37.551Z,1.60
2022-12-13T03:00:07.952Z,1.42
2022-12-13T03:02:57.683Z,1.48
2022-12-13T03:05:58.023Z,1.23
2022-12-13T03:08:51.259Z,1.45
2022-12-13T03:11:20.005Z,1.67
2022-12-13T03:13:54.199Z,1.60
2022-12-13T03:16:37.936Z,1.40
2022-12-13T03:19:07.819Z,1.42
2022-12-13T03:21:48.540Z,0.93
2022-12-13T03:24:20.673Z,1.33
2022-12-13T03:26:51.748Z,1.23
2022-12-13T03:29:23.654Z,1.17
2022-12-13T03:31:52.872Z,1.10
2022-12-13T03:34:22.806Z,1.50
2022-12-13T03:36:52.142Z,1.63
2022-12-13T03:39:19.815Z,1.55
2022-12-13T03:41:46.825Z,2.00
2022-12-13T03:44:13.701Z,1.35
2022-12-13T03:46:40.500Z,1.38
2022-12-13T03:49:07.485Z,1.40
2022-12-13T03:51:34.558Z,1.50
2022-12-13T03:54:01.350Z,1.70
2022-12-13T03:56:29.068Z,1.52
2022-12-13T03:58:55.723Z,1.35
2022-12-13T04:01:23.255Z,1.40
2022-12-13T04:03:50.135Z,1.20
2022-12-13T04:06:22.898Z,1.60
2022-12-13T04:08:51.418Z,1.33
2022-12-13T04:11:42.475Z,1.05
2022-12-13T04:14:11.833Z,1.20
2022-12-13T04:16:38.750Z,1.13
2022-12-13T04:19:05.605Z,1.08
2022-12-13T04:21:32.246Z,1.00
2022-12-13T04:24:01.110Z,1.10
2022-12-13T04:26:28.629Z,0.85
2022-12-13T04:28:56.902Z,1.08
2022-12-13T04:31:23.795Z,0.73
2022-12-13T04:33:51.061Z,0.85
2022-12-13T04:36:31.986Z,1.10
2022-12-13T04:39:01.235Z,1.08
2022-12-13T04:41:34.649Z,1.13
2022-12-13T04:44:02.257Z,1.17
2022-12-13T04:46:29.194Z,1.27
2022-12-13T04:48:55.997Z,1.10
2022-12-13T04:51:22.816Z,1.20
2022-12-13T04:53:50.569Z,1.25
2022-12-13T04:56:17.313Z,0.90
2022-12-13T04:58:44.194Z,1.08
2022-12-13T05:01:11.440Z,1.08
2022-12-13T05:03:39.331Z,1.20
2022-12-13T05:06:27.295Z,1.17
2022-12-13T05:08:54.851Z,1.00
2022-12-13T05:11:35.503Z,1.10
2022-12-13T05:14:03.119Z,1.33
2022-12-13T05:16:29.782Z,1.15
2022-12-13T05:18:56.571Z,1.42
2022-12-13T05:21:23.285Z,1.55
2022-12-13T05:23:49.939Z,1.83
2022-12-13T05:26:16.702Z,1.30
2022-12-13T05:28:43.489Z,1.20
2022-12-13T05:31:22.545Z,1.55
2022-12-13T05:33:51.370Z,1.23
2022-12-13T05:36:18.692Z,1.40
2022-12-13T05:38:45.397Z,1.90
2022-12-13T05:41:17.256Z,1.92
2022-12-13T05:43:44.596Z,2.15
2022-12-13T05:46:12.744Z,1.52
2022-12-13T05:48:39.865Z,1.35
2022-12-13T05:51:10.057Z,1.20
2022-12-13T05:53:41.240Z,1.52
2022-12-13T05:56:09.217Z,1.20
2022-12-13T05:58:37.270Z,1.70
2022-12-13T06:01:08.701Z,1.40
2022-12-13T06:03:36.314Z,1.52
2022-12-13T06:06:05.316Z,1.60
2022-12-13T06:08:32.357Z,1.73
2022-12-13T06:11:09.821Z,1.33
2022-12-13T06:13:42.580Z,1.58
2022-12-13T06:16:21.695Z,1.50
2022-12-13T06:18:51.891Z,1.33
2022-12-13T06:21:20.216Z,1.42
2022-12-13T06:23:46.962Z,1.17
2022-12-13T06:26:13.726Z,1.10
2022-12-13T06:28:40.454Z,1.52
2022-12-13T06:31:07.208Z,1.65
2022-12-13T06:33:38.405Z,1.92
2022-12-13T06:36:06.113Z,1.67
2022-12-13T06:38:33.166Z,2.00
2022-12-13T06:41:08.190Z,1.80
2022-12-13T06:43:35.349Z,2.30
2022-12-13T06:46:04.925Z,1.92
2022-12-13T06:48:32.425Z,1.90
2022-12-13T06:51:05.764Z,1.70
2022-12-13T06:53:34.625Z,1.95
2022-12-13T06:56:06.519Z,2.22
2022-12-13T06:58:34.678Z,1.73
2022-12-13T07:01:24.914Z,2.38
2022-12-13T07:03:55.837Z,2.05
2022-12-13T07:06:24.898Z,2.30
2022-12-13T07:08:54.681Z,2.33
2022-12-13T07:11:27.200Z,1.90
2022-12-13T07:13:54.634Z,1.52
2022-12-13T07:16:22.584Z,1.60
2022-12-13T07:18:55.177Z,1.48
2022-12-13T07:21:29.572Z,1.75
2022-12-13T07:23:56.706Z,1.77
2022-12-13T07:26:23.710Z,1.80
2022-12-13T07:28:55.108Z,1.90
2022-12-13T07:31:24.277Z,1.98
2022-12-13T07:33:51.798Z,1.77
2022-12-13T07:36:20.942Z,1.48
2022-12-13T07:38:55.534Z,1.58
2022-12-13T07:41:24.537Z,1.38
2022-12-13T07:43:55.666Z,1.85
2022-12-13T07:46:32.575Z,1.83
2022-12-13T07:49:02.699Z,1.92
2022-12-13T07:51:29.334Z,2.42
2022-12-13T07:53:56.121Z,2.42
2022-12-13T07:56:22.801Z,1.70
2022-12-13T07:58:49.626Z,1.67
2022-12-13T08:01:16.344Z,1.88
2022-12-13T08:03:43.086Z,1.77
2022-12-13T08:06:12.412Z,2.03
2022-12-13T08:08:39.800Z,1.80
2022-12-13T08:11:12.754Z,2.33
2022-12-13T08:13:40.971Z,2.20
2022-12-13T08:16:10.661Z,1.70
2022-12-13T08:19:01.173Z,2.20
2022-12-13T08:24:28.480Z,2.22
2022-12-13T08:27:02.554Z,1.88
2022-12-13T08:29:33.504Z,1.42
2022-12-13T08:32:10.558Z,2.13
2022-12-13T08:34:37.469Z,2.40
2022-12-13T08:37:05.343Z,2.08
2022-12-13T08:39:35.728Z,2.05
2022-12-13T08:42:16.655Z,2.28
2022-12-13T08:44:48.960Z,3.63
2022-12-13T08:47:23.461Z,3.20
2022-12-13T08:50:03.975Z,3.00
2022-12-13T08:52:40.810Z,3.45
2022-12-13T08:55:12.226Z,7.28
2022-12-13T08:57:40.813Z,9.25
2022-12-13T09:00:11.489Z,9.63
2022-12-13T09:02:38.890Z,10.05
2022-12-13T09:05:07.796Z,11.80
2022-12-13T09:07:36.287Z,11.13
2022-12-13T09:10:25.666Z,11.68
2022-12-13T09:12:54.085Z,11.27
2022-12-13T09:15:34.657Z,12.20
2022-12-13T09:18:04.312Z,11.68
2022-12-13T09:20:40.856Z,13.13
2022-12-13T09:23:14.211Z,14.35
2022-12-13T09:26:05.375Z,15.38
2022-12-13T09:28:35.043Z,14.45
2022-12-13T09:31:02.068Z,13.98
2022-12-13T09:33:31.133Z,15.00
2022-12-13T09:36:01.245Z,15.10
2022-12-13T09:38:28.356Z,14.88
2022-12-13T09:40:59.184Z,13.70
2022-12-13T09:43:43.014Z,15.95
2022-12-13T09:46:22.658Z,15.52
2022-12-13T09:48:53.231Z,15.73
2022-12-13T09:51:41.499Z,15.60
2022-12-13T09:54:18.640Z,16.98
2022-12-13T09:56:50.646Z,16.38
2022-12-13T09:59:20.469Z,17.67
2022-12-13T10:01:47.532Z,15.05
2022-12-13T10:04:17.687Z,14.77
2022-12-13T10:06:44.523Z,14.25
2022-12-13T10:09:14.028Z,16.35
2022-12-13T10:11:56.913Z,15.23
2022-12-13T10:14:35.079Z,14.77
2022-12-13T10:17:04.886Z,15.43
2022-12-13T10:19:41.537Z,14.30
2022-12-13T10:22:13.093Z,14.32
2022-12-13T10:24:57.543Z,14.95
2022-12-13T10:27:30.337Z,15.00
2022-12-13T10:30:00.782Z,15.50
2022-12-13T10:32:28.035Z,14.40
2022-12-13T10:34:55.375Z,15.07
2022-12-13T10:37:28.622Z,14.57
2022-12-13T10:39:55.369Z,14.63
2022-12-13T10:42:25.877Z,13.35
2022-12-13T10:45:23.023Z,12.93
2022-12-13T10:47:51.014Z,13.38
2022-12-13T10:50:27.753Z,13.02
2022-12-13T10:52:56.399Z,12.82
2022-12-13T10:55:33.551Z,12.65
2022-12-13T10:58:19.324Z,12.40
2022-12-13T11:00:49.191Z,12.07
2022-12-13T11:03:33.706Z,10.48
2022-12-13T11:06:03.544Z,9.18
2022-12-13T11:08:30.336Z,10.93
2022-12-13T11:11:03.005Z,9.48
2022-12-13T11:13:44.807Z,10.57
2022-12-13T11:16:37.065Z,8.57
2022-12-13T11:19:10.401Z,9.48
2022-12-13T11:21:39.368Z,9.30
2022-12-13T11:24:08.214Z,9.32
2022-12-13T11:26:39.316Z,9.10
2022-12-13T11:29:43.986Z,8.75
2022-12-13T11:32:37.247Z,8.20
2022-12-13T11:35:32.917Z,8.95
2022-12-13T11:38:14.777Z,8.50
2022-12-13T11:40:46.427Z,8.93
2022-12-13T11:43:32.147Z,9.10
2022-12-13T11:46:04.460Z,8.70
2022-12-13T11:48:42.336Z,8.52
2022-12-13T11:51:11.728Z,9.05
2022-12-13T11:54:02.686Z,9.00
2022-12-13T11:56:47.904Z,9.30
2022-12-13T11:59:39.767Z,8.80
2022-12-13T12:02:34.318Z,9.48
2022-12-13T12:05:20.845Z,9.30
2022-12-13T12:08:20.942Z,9.05
2022-12-13T12:10:49.418Z,8.52
2022-12-13T12:13:25.670Z,8.02
2022-12-13T12:16:04.127Z,7.50
2022-12-13T12:21:42.779Z,7.13
2022-12-13T12:24:30.366Z,6.43
2022-12-13T12:27:06.371Z,5.57
2022-12-13T12:29:49.734Z,5.97
2022-12-13T12:32:25.925Z,6.53
2022-12-13T12:35:18.181Z,7.07
2022-12-13T12:37:54.436Z,7.43
2022-12-13T12:41:14.661Z,7.82
2022-12-13T12:43:40.590Z,7.43
2022-12-13T12:47:08.959Z,7.25
2022-12-13T12:49:46.958Z,7.75
2022-12-13T12:52:32.509Z,7.35
2022-12-13T12:55:35.653Z,8.52
2022-12-13T12:58:15.884Z,8.50
2022-12-13T13:01:00.632Z,7.53
2022-12-13T13:03:31.567Z,8.02
2022-12-13T13:06:19.454Z,8.18
2022-12-13T13:09:08.831Z,7.88
2022-12-13T13:11:43.271Z,8.43
2022-12-13T13:14:32.290Z,7.88
2022-12-13T13:17:28.870Z,9.35
2022-12-13T13:20:20.535Z,7.80
2022-12-13T13:22:58.421Z,8.65
2022-12-13T13:25:48.789Z,8.50
2022-12-13T13:31:01.827Z,8.43
2022-12-13T13:33:49.473Z,9.15
2022-12-13T13:36:52.332Z,9.40
2022-12-13T13:39:28.258Z,9.63
2022-12-13T13:42:13.863Z,9.07
2022-12-13T13:44:49.663Z,9.00
2022-12-13T13:47:29.893Z,9.15
2022-12-13T13:50:11.185Z,7.95
2022-12-13T13:52:46.959Z,8.30
2022-12-13T13:55:31.874Z,9.02
2022-12-13T13:58:40.090Z,8.85
2022-12-13T14:01:12.698Z,9.02
2022-12-13T14:03:51.842Z,8.80
2022-12-13T14:06:43.216Z,9.23
2022-12-13T14:09:43.943Z,8.65
2022-12-13T14:12:38.193Z,9.13
2022-12-13T14:15:33.167Z,8.60
2022-12-13T14:18:24.443Z,9.27
2022-12-13T14:21:06.315Z,9.35
2022-12-13T14:23:42.052Z,9.10
2022-12-13T14:26:14.762Z,10.00
2022-12-13T14:29:00.221Z,8.88
2022-12-13T14:31:48.323Z,10.15
2022-12-13T14:34:35.350Z,9.70
2022-12-13T14:37:18.761Z,10.05
2022-12-13T14:39:45.590Z,9.05
2022-12-13T14:42:30.289Z,9.90
2022-12-13T14:45:13.780Z,8.85
2022-12-13T14:47:41.546Z,8.68
2022-12-13T14:50:08.782Z,8.52
2022-12-13T14:52:39.790Z,9.48
2022-12-13T14:55:07.645Z,8.75
2022-12-13T14:57:35.483Z,9.02
2022-12-13T15:00:22.762Z,9.43
2022-12-13T15:02:52.459Z,8.70
2022-12-13T15:05:48.841Z,9.15
2022-12-13T15:08:20.431Z,9.02
2022-12-13T15:10:51.712Z,9.10
2022-12-13T15:13:38.759Z,8.77
2022-12-13T15:16:28.762Z,8.55
2022-12-13T15:19:10.881Z,9.32
2022-12-13T15:21:38.030Z,8.55
2022-12-13T15:24:05.528Z,9.25
2022-12-13T15:26:33.600Z,8.70
2022-12-13T15:29:10.051Z,8.80
2022-12-13T15:31:38.690Z,8.80
2022-12-13T15:34:29.544Z,8.82
2022-12-13T15:37:03.628Z,7.93
2022-12-13T15:39:35.271Z,8.30
2022-12-13T15:42:02.058Z,8.73
2022-12-13T15:44:54.798Z,8.38
2022-12-13T15:47:28.697Z,8.98
2022-12-13T15:50:05.955Z,8.20
2022-12-13T15:52:41.230Z,8.25
2022-12-13T15:55:11.218Z,8.30
2022-12-13T15:57:56.149Z,8.27
2022-12-13T16:00:32.496Z,8.40
2022-12-13T16:03:08.522Z,7.93
2022-12-13T16:05:40.561Z,9.55
2022-12-13T16:08:17.128Z,8.93
2022-12-13T16:10:51.786Z,8.05
2022-12-13T16:13:30.427Z,8.13
2022-12-13T16:16:08.992Z,8.32
2022-12-13T16:18:46.200Z,9.23
2022-12-13T16:21:14.159Z,9.68
2022-12-13T16:23:48.910Z,8.60
2022-12-13T16:26:22.844Z,8.40
2022-12-13T16:28:50.582Z,9.35
2022-12-13T16:31:21.989Z,10.07
2022-12-13T16:33:50.123Z,9.30
2022-12-13T16:36:17.690Z,10.27
2022-12-13T16:38:44.438Z,10.00
2022-12-13T16:41:11.399Z,10.60
2022-12-13T16:43:44.434Z,9.57
2022-12-13T16:47:15.155Z,11.80
2022-12-13T16:49:02.005Z,11.02
2022-12-13T16:51:28.702Z,11.02
2022-12-13T16:53:55.469Z,11.15
2022-12-13T16:56:22.443Z,10.88
2022-12-13T16:58:50.541Z,10.55
2022-12-13T17:01:21.760Z,10.73
2022-12-13T17:03:48.543Z,10.00
2022-12-13T17:06:18.633Z,10.43
2022-12-13T17:08:45.338Z,10.40
2022-12-13T17:11:17.715Z,10.88
2022-12-13T17:13:47.442Z,10.50
2022-12-13T17:16:16.125Z,10.77
2022-12-13T17:18:43.243Z,10.30
2022-12-13T17:21:12.006Z,11.30
2022-12-13T17:23:38.827Z,10.90
2022-12-13T17:26:07.912Z,10.95
2022-12-13T17:28:34.618Z,11.43
2022-12-13T17:31:09.671Z,11.52
2022-12-13T17:33:36.420Z,10.63
2022-12-13T17:36:08.316Z,10.88
2022-12-13T17:38:35.595Z,10.55
2022-12-13T17:41:02.810Z,10.95
2022-12-13T17:43:34.880Z,10.50
2022-12-13T17:46:04.501Z,10.00
2022-12-13T17:48:39.260Z,11.77
2022-12-13T17:51:10.621Z,10.45
2022-12-13T17:53:40.239Z,10.30
2022-12-13T17:56:09.521Z,11.43
2022-12-13T17:58:36.510Z,10.70
2022-12-13T18:01:14.528Z,11.57
2022-12-13T18:03:41.397Z,9.98
2022-12-13T18:06:08.928Z,10.70
2022-12-13T18:08:37.441Z,11.35
2022-12-13T18:13:54.725Z,11.07
2022-12-13T18:16:23.265Z,11.05
2022-12-13T18:18:55.055Z,11.60
2022-12-13T18:21:24.201Z,11.00
2022-12-13T18:23:55.304Z,11.75
2022-12-13T18:26:23.911Z,12.10
2022-12-13T18:28:52.420Z,12.00
2022-12-13T18:31:22.364Z,11.55
2022-12-13T18:33:50.091Z,11.60
2022-12-13T18:36:17.735Z,12.45
2022-12-13T18:38:45.442Z,11.68
2022-12-13T18:41:18.166Z,11.10
2022-12-13T18:43:46.165Z,10.70
2022-12-13T18:46:14.721Z,11.98
2022-12-13T18:48:42.081Z,10.70
2022-12-13T18:51:10.671Z,11.57
2022-12-13T18:53:40.204Z,12.55
2022-12-13T18:56:16.173Z,11.50
2022-12-13T19:01:16.807Z,11.73
2022-12-13T19:03:45.848Z,11.90
2022-12-13T19:06:21.621Z,11.73
2022-12-13T19:08:55.599Z,12.60
2022-12-13T19:11:24.508Z,11.35
2022-12-13T19:13:52.185Z,12.13
2022-12-13T19:16:21.812Z,11.73
2022-12-13T19:18:48.928Z,11.45
2022-12-13T19:21:18.470Z,12.23
2022-12-13T19:23:49.480Z,12.43
2022-12-13T19:26:21.420Z,13.10
2022-12-13T19:28:48.239Z,12.13
2022-12-13T19:31:15.781Z,12.70
2022-12-13T19:33:43.418Z,11.65
2022-12-13T19:36:10.860Z,12.10
2022-12-13T19:38:38.387Z,11.05
2022-12-13T19:41:10.211Z,12.50
2022-12-13T19:43:37.721Z,13.25
2022-12-13T19:46:05.187Z,12.55
2022-12-13T19:48:32.455Z,12.00
2022-12-13T19:51:00.482Z,11.10
2022-12-13T19:53:28.714Z,11.98
2022-12-13T19:55:55.664Z,13.15
2022-12-13T19:58:22.616Z,13.07
2022-12-13T20:00:49.545Z,13.40
2022-12-13T20:03:16.417Z,12.68
2022-12-13T20:05:45.920Z,12.93
2022-12-13T20:08:12.911Z,13.45
2022-12-13T20:10:39.686Z,12.85
2022-12-13T20:13:06.530Z,13.13
2022-12-13T20:15:33.261Z,12.70
2022-12-13T20:18:00.130Z,13.45
2022-12-13T20:20:41.025Z,12.70
2022-12-13T20:23:13.739Z,12.68
2022-12-13T20:25:40.523Z,12.30
2022-12-13T20:28:11.431Z,13.13
2022-12-13T20:30:41.036Z,12.20
2022-12-13T20:33:07.943Z,11.90
2022-12-13T20:35:35.021Z,11.60
2022-12-13T20:38:03.446Z,12.43
2022-12-13T20:40:30.154Z,12.80
2022-12-13T20:42:56.846Z,12.63
2022-12-13T20:45:23.528Z,13.30
2022-12-13T20:47:50.351Z,12.32
2022-12-13T20:50:17.038Z,11.55
2022-12-13T20:52:50.562Z,14.20
2022-12-13T20:55:20.862Z,11.73
2022-12-13T20:57:47.612Z,13.32
2022-12-13T21:00:15.175Z,11.38
2022-12-13T21:02:44.455Z,12.98
2022-12-13T21:05:13.936Z,12.00
2022-12-13T21:08:02.875Z,13.68
2022-12-13T21:10:29.484Z,13.35
2022-12-13T21:12:56.347Z,13.45
2022-12-13T21:15:23.040Z,13.10
2022-12-13T21:17:49.720Z,13.43
2022-12-13T21:20:16.623Z,13.02
2022-12-13T21:22:43.655Z,13.25
2022-12-13T21:25:10.410Z,14.02
2022-12-13T21:27:37.185Z,14.50
2022-12-13T21:30:04.375Z,14.05
2022-12-13T21:32:31.023Z,16.50
2022-12-13T21:34:57.955Z,13.82
2022-12-13T21:37:24.770Z,14.30
2022-12-13T21:39:51.554Z,14.57
2022-12-13T21:42:18.672Z,14.02
2022-12-13T21:44:45.420Z,14.85
2022-12-13T21:47:13.159Z,14.93
2022-12-13T21:49:41.211Z,14.77
2022-12-13T21:52:07.928Z,14.48
2022-12-13T21:54:34.578Z,15.55
2022-12-13T21:57:20.000Z,13.20
2022-12-13T21:59:46.835Z,15.07
2022-12-13T22:02:18.671Z,14.63
2022-12-13T22:04:50.969Z,14.63
2022-12-13T22:07:19.123Z,14.05
2022-12-13T22:09:46.812Z,14.13
2022-12-13T22:12:33.039Z,14.65
2022-12-13T22:14:59.909Z,12.05
2022-12-13T22:17:34.574Z,14.05
2022-12-13T22:20:05.144Z,14.07
2022-12-13T22:22:31.979Z,13.43
2022-12-13T22:24:58.702Z,13.45
2022-12-13T22:27:26.060Z,13.70
2022-12-13T22:29:56.558Z,14.43
2022-12-13T22:32:25.059Z,14.68
2022-12-13T22:34:51.789Z,13.52
2022-12-13T22:37:19.978Z,15.05
2022-12-13T22:39:46.637Z,13.88
2022-12-13T22:42:13.463Z,14.38
2022-12-13T22:44:40.123Z,16.27
2022-12-13T22:47:07.004Z,13.77
2022-12-13T22:49:33.734Z,13.50
2022-12-13T22:52:00.647Z,14.50
2022-12-13T22:54:27.302Z,15.25
2022-12-13T22:56:54.013Z,14.15
2022-12-13T22:59:20.680Z,14.98
2022-12-13T23:01:47.781Z,15.65
2022-12-13T23:04:15.227Z,13.23
2022-12-13T23:06:42.286Z,15.63
2022-12-13T23:09:12.624Z,15.25
2022-12-13T23:11:58.512Z,13.75
2022-12-13T23:14:33.719Z,13.85
2022-12-13T23:17:01.471Z,15.90
2022-12-13T23:19:50.489Z,14.10
2022-12-13T23:22:15.945Z,14.18
2022-12-13T23:24:42.724Z,12.18
2022-12-13T23:27:09.421Z,14.10
2022-12-13T23:29:36.219Z,12.70
2022-12-13T23:32:03.220Z,12.65
2022-12-13T23:34:31.024Z,13.18
2022-12-13T23:36:57.723Z,14.07
2022-12-13T23:39:24.407Z,11.70
2022-12-13T23:41:51.249Z,14.02
2022-12-13T23:44:18.008Z,13.23
2022-12-13T23:46:48.591Z,12.07
2022-12-13T23:49:16.242Z,13.48
2022-12-13T23:51:43.142Z,11.05
2022-12-13T23:54:14.565Z,11.38
2022-12-13T23:56:41.422Z,13.18
2022-12-13T23:59:09.328Z,12.00
